createdAt,value
2023-05-15T00:00:05.936Z,10.11
2023-05-15T00:00:35.208Z,10.11
2023-05-15T00:01:07.997Z,10.11
2023-05-15T00:01:39.415Z,10.11
2023-05-15T00:02:12.136Z,10.11
2023-05-15T00:02:43.392Z,10.11
2023-05-15T00:03:16.097Z,10.11
2023-05-15T00:03:47.468Z,10.11
2023-05-15T00:04:19.961Z,10.11
2023-05-15T00:04:51.492Z,10.11
2023-05-15T00:05:24.629Z,10.11
2023-05-15T00:05:55.324Z,10.11
2023-05-15T00:06:28.161Z,10.11
2023-05-15T00:06:59.432Z,10.11
2023-05-15T00:07:32.004Z,10.11
2023-05-15T00:08:03.239Z,10.11
2023-05-15T00:08:36.265Z,10.11
2023-05-15T00:09:07.402Z,10.11
2023-05-15T00:09:40.117Z,10.11
2023-05-15T00:10:11.486Z,10.11
2023-05-15T00:10:59.762Z,10.00
2023-05-15T00:11:15.159Z,10.00
2023-05-15T00:11:48.028Z,10.11
2023-05-15T00:12:19.370Z,10.11
2023-05-15T00:12:52.133Z,10.11
2023-05-15T00:13:23.290Z,10.11
2023-05-15T00:13:56.066Z,10.11
2023-05-15T00:14:27.432Z,10.11
2023-05-15T00:14:59.903Z,10.11
2023-05-15T00:15:32.720Z,10.11
2023-05-15T00:16:04.220Z,10.11
2023-05-15T00:16:35.373Z,10.11
2023-05-15T00:17:08.059Z,10.11
2023-05-15T00:17:39.374Z,10.11
2023-05-15T00:18:12.160Z,10.11
2023-05-15T00:18:43.345Z,10.11
2023-05-15T00:19:16.126Z,10.11
2023-05-15T00:19:47.399Z,10.11
2023-05-15T00:20:20.205Z,10.11
2023-05-15T00:20:51.313Z,10.11
2023-05-15T00:21:24.089Z,10.11
2023-05-15T00:21:55.461Z,10.11
2023-05-15T00:22:28.112Z,10.22
2023-05-15T00:22:59.392Z,10.22
2023-05-15T00:23:32.021Z,10.22
2023-05-15T00:24:03.266Z,10.22
2023-05-15T00:24:36.140Z,10.22
2023-05-15T00:25:07.568Z,10.22
2023-05-15T00:25:40.272Z,10.22
2023-05-15T00:26:11.403Z,10.22
2023-05-15T00:26:44.263Z,10.22
2023-05-15T00:27:15.475Z,10.22
2023-05-15T00:27:48.145Z,10.22
2023-05-15T00:28:19.494Z,10.22
2023-05-15T00:28:52.441Z,10.22
2023-05-15T00:29:23.436Z,10.22
2023-05-15T00:29:56.134Z,10.22
2023-05-15T00:30:28.355Z,10.22
2023-05-15T00:31:00.399Z,10.22
2023-05-15T00:31:31.371Z,10.22
2023-05-15T00:32:04.068Z,10.22
2023-05-15T00:32:35.571Z,10.22
2023-05-15T00:33:08.321Z,10.22
2023-05-15T00:33:39.428Z,10.22
2023-05-15T00:34:11.968Z,10.22
2023-05-15T00:34:43.446Z,10.22
2023-05-15T00:35:16.224Z,10.22
2023-05-15T00:35:47.559Z,10.22
2023-05-15T00:36:20.130Z,10.22
2023-05-15T00:36:51.489Z,10.22
2023-05-15T00:37:24.275Z,10.22
2023-05-15T00:37:55.367Z,10.22
2023-05-15T00:38:28.178Z,10.22
2023-05-15T00:38:59.291Z,10.22
2023-05-15T00:39:32.206Z,10.22
2023-05-15T00:40:03.634Z,10.22
2023-05-15T00:40:36.305Z,10.22
2023-05-15T00:41:07.351Z,10.22
2023-05-15T00:41:40.212Z,10.22
2023-05-15T00:42:11.504Z,10.22
2023-05-15T00:42:44.198Z,10.22
2023-05-15T00:43:15.349Z,10.22
2023-05-15T00:43:48.179Z,10.22
2023-05-15T00:44:19.345Z,10.22
2023-05-15T00:44:52.110Z,10.22
2023-05-15T00:45:24.506Z,10.22
2023-05-15T00:45:56.374Z,10.22
2023-05-15T00:46:27.243Z,10.22
2023-05-15T00:47:00.430Z,10.22
2023-05-15T00:47:31.454Z,10.22
2023-05-15T00:48:04.466Z,10.11
2023-05-15T00:48:35.355Z,10.11
2023-05-15T00:49:08.202Z,10.22
2023-05-15T00:49:39.448Z,10.22
2023-05-15T00:50:12.403Z,10.22
2023-05-15T00:50:43.520Z,10.22
2023-05-15T00:51:16.277Z,10.11
2023-05-15T00:51:47.252Z,10.11
2023-05-15T00:52:20.181Z,10.11
2023-05-15T00:52:51.384Z,10.11
2023-05-15T00:53:24.268Z,10.11
2023-05-15T00:53:55.298Z,10.11
2023-05-15T00:54:28.047Z,10.11
2023-05-15T00:54:59.261Z,10.11
2023-05-15T00:55:32.380Z,10.11
2023-05-15T00:56:03.262Z,10.11
2023-05-15T00:56:36.088Z,10.11
2023-05-15T00:57:07.422Z,10.11
2023-05-15T00:57:40.350Z,10.11
2023-05-15T00:58:11.321Z,10.11
2023-05-15T00:58:44.198Z,10.00
2023-05-15T00:59:15.444Z,10.00
2023-05-15T00:59:48.041Z,10.00
2023-05-15T01:00:20.357Z,10.00
2023-05-15T01:00:52.529Z,10.00
2023-05-15T01:01:23.438Z,10.00
2023-05-15T01:01:56.083Z,10.00
2023-05-15T01:02:27.388Z,10.00
2023-05-15T01:03:00.359Z,10.00
2023-05-15T01:03:31.365Z,10.00
2023-05-15T01:04:04.231Z,10.00
2023-05-15T01:04:35.465Z,10.00
2023-05-15T01:05:08.352Z,10.00
2023-05-15T01:05:39.402Z,10.00
2023-05-15T01:06:12.132Z,9.88
2023-05-15T01:06:43.373Z,9.88
2023-05-15T01:07:16.265Z,10.00
2023-05-15T01:07:47.423Z,10.00
2023-05-15T01:08:20.146Z,9.88
2023-05-15T01:08:51.307Z,9.88
2023-05-15T01:09:24.227Z,9.88
2023-05-15T01:09:55.441Z,9.88
2023-05-15T01:10:28.464Z,9.88
2023-05-15T01:10:59.262Z,9.88
2023-05-15T01:11:32.091Z,9.88
2023-05-15T01:12:03.412Z,9.88
2023-05-15T01:12:37.240Z,9.88
2023-05-15T01:13:07.345Z,9.88
2023-05-15T01:13:40.316Z,9.77
2023-05-15T01:14:11.336Z,9.77
2023-05-15T01:14:44.212Z,9.77
2023-05-15T01:15:16.197Z,9.77
2023-05-15T01:15:48.379Z,9.77
2023-05-15T01:16:19.224Z,9.77
2023-05-15T01:16:52.105Z,9.77
2023-05-15T01:17:23.440Z,9.77
2023-05-15T01:17:56.209Z,9.72
2023-05-15T01:18:27.438Z,9.72
2023-05-15T01:19:00.222Z,9.72
2023-05-15T01:19:31.536Z,9.72
2023-05-15T01:20:04.425Z,9.72
2023-05-15T01:20:35.370Z,9.72
2023-05-15T01:21:08.038Z,9.72
2023-05-15T01:21:39.251Z,9.72
2023-05-15T01:22:12.200Z,9.72
2023-05-15T01:22:43.452Z,9.72
2023-05-15T01:23:16.021Z,9.72
2023-05-15T01:23:47.286Z,9.72
2023-05-15T01:24:20.141Z,9.72
2023-05-15T01:24:51.438Z,9.72
2023-05-15T01:25:24.483Z,9.61
2023-05-15T01:25:55.451Z,9.61
2023-05-15T01:26:28.197Z,9.61
2023-05-15T01:26:59.198Z,9.61
2023-05-15T01:27:32.262Z,9.61
2023-05-15T01:28:03.458Z,9.61
2023-05-15T01:28:36.190Z,9.61
2023-05-15T01:29:07.408Z,9.61
2023-05-15T01:29:40.113Z,9.61
2023-05-15T01:30:12.251Z,9.61
2023-05-15T01:30:44.255Z,9.61
2023-05-15T01:31:15.345Z,9.61
2023-05-15T01:31:48.174Z,9.61
2023-05-15T01:32:19.570Z,9.61
2023-05-15T01:32:52.390Z,9.61
2023-05-15T01:33:23.499Z,9.61
2023-05-15T01:33:56.287Z,9.61
2023-05-15T01:34:27.211Z,9.61
2023-05-15T01:35:00.171Z,9.61
2023-05-15T01:35:31.890Z,9.61
2023-05-15T01:36:04.258Z,9.61
2023-05-15T01:36:35.319Z,9.61
2023-05-15T01:37:08.345Z,9.61
2023-05-15T01:37:39.449Z,9.61
2023-05-15T01:38:12.251Z,9.61
2023-05-15T01:38:43.463Z,9.61
2023-05-15T01:39:16.302Z,9.50
2023-05-15T01:39:47.256Z,9.50
2023-05-15T01:40:20.415Z,9.50
2023-05-15T01:40:51.411Z,9.50
2023-05-15T01:41:24.037Z,9.61
2023-05-15T01:41:55.355Z,9.61
2023-05-15T01:42:28.260Z,9.50
2023-05-15T01:42:59.390Z,9.50
2023-05-15T01:43:32.113Z,9.50
2023-05-15T01:44:03.442Z,9.50
2023-05-15T01:44:36.173Z,9.61
2023-05-15T01:45:08.413Z,9.61
2023-05-15T01:45:40.500Z,9.50
2023-05-15T01:46:11.367Z,9.50
2023-05-15T01:46:44.511Z,9.50
2023-05-15T01:47:15.264Z,9.50
2023-05-15T01:47:48.263Z,9.50
2023-05-15T01:48:19.458Z,9.50
2023-05-15T01:48:52.232Z,9.50
2023-05-15T01:49:23.341Z,9.50
2023-05-15T01:49:56.277Z,9.50
2023-05-15T01:50:27.876Z,9.50
2023-05-15T01:51:00.255Z,9.61
2023-05-15T01:51:31.441Z,9.61
2023-05-15T01:52:04.316Z,9.50
2023-05-15T01:52:35.249Z,9.50
2023-05-15T01:53:08.138Z,9.61
2023-05-15T01:53:39.497Z,9.61
2023-05-15T01:54:12.288Z,9.50
2023-05-15T01:54:43.444Z,9.50
2023-05-15T01:55:16.307Z,9.50
2023-05-15T01:55:47.472Z,9.50
2023-05-15T01:56:20.050Z,9.50
2023-05-15T01:56:51.425Z,9.50
2023-05-15T01:57:24.340Z,9.50
2023-05-15T01:57:55.480Z,9.50
2023-05-15T01:58:28.076Z,9.50
2023-05-15T01:58:59.409Z,9.50
2023-05-15T01:59:32.219Z,9.50
2023-05-15T02:00:04.866Z,9.50
2023-05-15T02:00:36.572Z,9.50
2023-05-15T02:01:07.374Z,9.50
2023-05-15T02:01:40.307Z,9.50
2023-05-15T02:02:11.390Z,9.50
2023-05-15T02:02:44.406Z,9.50
2023-05-15T02:03:15.453Z,9.50
2023-05-15T02:03:48.074Z,9.50
2023-05-15T02:04:19.387Z,9.50
2023-05-15T02:04:52.197Z,9.38
2023-05-15T02:05:23.597Z,9.38
2023-05-15T02:05:56.151Z,9.38
2023-05-15T02:06:27.410Z,9.38
2023-05-15T02:07:01.293Z,9.38
2023-05-15T02:07:31.310Z,9.38
2023-05-15T02:08:04.224Z,9.38
2023-05-15T02:08:35.431Z,9.38
2023-05-15T02:09:08.302Z,9.38
2023-05-15T02:09:39.306Z,9.38
2023-05-15T02:10:12.412Z,9.38
2023-05-15T02:10:43.528Z,9.38
2023-05-15T02:11:16.126Z,9.27
2023-05-15T02:11:47.412Z,9.27
2023-05-15T02:12:20.262Z,9.27
2023-05-15T02:12:51.493Z,9.27
2023-05-15T02:13:24.220Z,9.27
2023-05-15T02:13:55.282Z,9.27
2023-05-15T02:14:28.371Z,9.27
2023-05-15T02:14:59.277Z,9.27
2023-05-15T02:15:33.461Z,9.27
2023-05-15T02:16:03.457Z,9.27
2023-05-15T02:16:36.066Z,9.27
2023-05-15T02:17:07.367Z,9.27
2023-05-15T02:17:40.373Z,9.22
2023-05-15T02:18:11.463Z,9.22
2023-05-15T02:18:44.289Z,9.22
2023-05-15T02:19:15.383Z,9.22
2023-05-15T02:19:48.281Z,9.22
2023-05-15T02:20:19.515Z,9.22
2023-05-15T02:20:52.147Z,9.22
2023-05-15T02:21:23.310Z,9.22
2023-05-15T02:21:56.305Z,9.22
2023-05-15T02:22:27.251Z,9.22
2023-05-15T02:23:00.194Z,9.22
2023-05-15T02:23:31.424Z,9.22
2023-05-15T02:24:03.951Z,9.22
2023-05-15T02:24:35.328Z,9.22
2023-05-15T02:25:08.341Z,9.11
2023-05-15T02:25:39.132Z,9.11
2023-05-15T02:26:11.982Z,9.11
2023-05-15T02:26:43.355Z,9.11
2023-05-15T02:27:17.268Z,9.11
2023-05-15T02:27:47.308Z,9.11
2023-05-15T02:28:20.244Z,9.11
2023-05-15T02:28:51.295Z,9.11
2023-05-15T02:29:24.259Z,9.11
2023-05-15T02:29:55.284Z,9.11
2023-05-15T02:30:29.143Z,9.11
2023-05-15T02:30:59.557Z,9.11
2023-05-15T02:31:32.227Z,9.11
2023-05-15T02:32:03.437Z,9.11
2023-05-15T02:32:36.383Z,9.11
2023-05-15T02:33:07.331Z,9.11
2023-05-15T02:33:40.179Z,9.11
2023-05-15T02:34:11.404Z,9.11
2023-05-15T02:34:44.384Z,9.00
2023-05-15T02:35:15.559Z,9.00
2023-05-15T02:35:48.368Z,9.00
2023-05-15T02:36:19.458Z,9.00
2023-05-15T02:36:52.318Z,9.00
2023-05-15T02:37:23.312Z,9.00
2023-05-15T02:37:56.493Z,9.00
2023-05-15T02:38:27.302Z,9.00
2023-05-15T02:39:00.232Z,8.88
2023-05-15T02:39:31.389Z,8.88
2023-05-15T02:40:04.940Z,8.88
2023-05-15T02:40:35.324Z,8.88
2023-05-15T02:41:08.239Z,8.88
2023-05-15T02:41:39.605Z,8.88
2023-05-15T02:42:12.343Z,8.88
2023-05-15T02:42:43.435Z,8.88
2023-05-15T02:43:17.120Z,8.88
2023-05-15T02:43:47.292Z,8.88
2023-05-15T02:44:20.308Z,8.77
2023-05-15T02:44:51.356Z,8.77
2023-05-15T02:45:26.380Z,8.77
2023-05-15T02:45:55.559Z,8.77
2023-05-15T02:46:28.169Z,8.77
2023-05-15T02:46:59.470Z,8.77
2023-05-15T02:47:32.021Z,8.77
2023-05-15T02:48:03.364Z,8.77
2023-05-15T02:48:36.130Z,8.77
2023-05-15T02:49:07.428Z,8.77
2023-05-15T02:49:40.051Z,8.77
2023-05-15T02:50:11.587Z,8.77
2023-05-15T02:50:44.277Z,8.77
2023-05-15T02:51:15.259Z,8.77
2023-05-15T02:51:48.182Z,8.77
2023-05-15T02:52:19.390Z,8.77
2023-05-15T02:52:52.254Z,8.77
2023-05-15T02:53:23.189Z,8.77
2023-05-15T02:53:57.141Z,8.72
2023-05-15T02:54:27.444Z,8.72
2023-05-15T02:55:00.694Z,8.72
2023-05-15T02:55:31.417Z,8.72
2023-05-15T02:56:04.246Z,8.72
2023-05-15T02:56:35.328Z,8.72
2023-05-15T02:57:08.128Z,8.72
2023-05-15T02:57:39.385Z,8.72
2023-05-15T02:58:12.213Z,8.72
2023-05-15T02:58:43.373Z,8.72
2023-05-15T02:59:16.165Z,8.72
2023-05-15T02:59:47.384Z,8.72
2023-05-15T03:00:21.246Z,8.61
2023-05-15T03:00:51.551Z,8.61
2023-05-15T03:01:24.184Z,8.61
2023-05-15T03:01:55.296Z,8.61
2023-05-15T03:02:28.448Z,8.61
2023-05-15T03:02:59.463Z,8.61
2023-05-15T03:03:32.253Z,8.61
2023-05-15T03:04:03.309Z,8.61
2023-05-15T03:04:36.258Z,8.61
2023-05-15T03:05:07.656Z,8.61
2023-05-15T03:05:40.268Z,8.61
2023-05-15T03:06:11.303Z,8.61
2023-05-15T03:06:44.313Z,8.61
2023-05-15T03:07:15.490Z,8.61
2023-05-15T03:07:48.148Z,8.61
2023-05-15T03:08:19.351Z,8.61
2023-05-15T03:08:52.166Z,8.61
2023-05-15T03:09:23.269Z,8.61
2023-05-15T03:09:39.506Z,8.61
2023-05-15T03:10:11.550Z,8.61
2023-05-15T03:10:43.382Z,8.61
2023-05-15T03:11:15.425Z,8.61
2023-05-15T03:11:47.449Z,8.61
2023-05-15T03:12:19.316Z,8.61
2023-05-15T03:12:51.537Z,8.50
2023-05-15T03:13:23.413Z,8.50
2023-05-15T03:13:55.294Z,8.50
2023-05-15T03:14:28.300Z,8.50
2023-05-15T03:14:59.470Z,8.50
2023-05-15T03:15:33.425Z,8.50
2023-05-15T03:16:03.491Z,8.50
2023-05-15T03:16:36.395Z,8.50
2023-05-15T03:17:07.487Z,8.50
2023-05-15T03:17:40.190Z,8.50
2023-05-15T03:18:11.557Z,8.50
2023-05-15T03:18:44.376Z,8.50
2023-05-15T03:19:15.575Z,8.50
2023-05-15T03:19:48.151Z,8.50
2023-05-15T03:20:19.689Z,8.50
2023-05-15T03:20:52.328Z,8.50
2023-05-15T03:21:23.340Z,8.50
2023-05-15T03:21:59.609Z,8.50
2023-05-15T03:22:27.356Z,8.50
2023-05-15T03:23:00.395Z,8.50
2023-05-15T03:23:31.283Z,8.38
2023-05-15T03:24:04.322Z,8.38
2023-05-15T03:24:35.359Z,8.38
2023-05-15T03:25:08.342Z,8.38
2023-05-15T03:25:39.336Z,8.38
2023-05-15T03:26:12.078Z,8.38
2023-05-15T03:26:43.242Z,8.38
2023-05-15T03:27:16.163Z,8.38
2023-05-15T03:27:47.349Z,8.38
2023-05-15T03:28:20.396Z,8.38
2023-05-15T03:28:51.331Z,8.38
2023-05-15T03:29:24.275Z,8.38
2023-05-15T03:29:55.411Z,8.38
2023-05-15T03:30:29.145Z,8.38
2023-05-15T03:30:59.426Z,8.38
2023-05-15T03:31:32.450Z,8.38
2023-05-15T03:32:03.396Z,8.38
2023-05-15T03:32:36.350Z,8.38
2023-05-15T03:33:07.509Z,8.38
2023-05-15T03:33:40.521Z,8.38
2023-05-15T03:34:11.243Z,8.38
2023-05-15T03:34:44.119Z,8.38
2023-05-15T03:35:15.744Z,8.38
2023-05-15T03:35:48.735Z,8.38
2023-05-15T03:36:19.625Z,8.38
2023-05-15T03:36:52.146Z,8.38
2023-05-15T03:37:23.577Z,8.38
2023-05-15T03:37:56.369Z,8.38
2023-05-15T03:38:27.604Z,8.38
2023-05-15T03:39:00.456Z,8.38
2023-05-15T03:39:31.506Z,8.38
2023-05-15T03:40:04.684Z,8.38
2023-05-15T03:40:35.597Z,8.38
2023-05-15T03:41:08.494Z,8.38
2023-05-15T03:41:39.597Z,8.38
2023-05-15T03:42:12.593Z,8.38
2023-05-15T03:42:43.643Z,8.38
2023-05-15T03:43:16.466Z,8.38
2023-05-15T03:43:47.551Z,8.38
2023-05-15T03:44:20.395Z,8.38
2023-05-15T03:44:51.614Z,8.38
2023-05-15T03:45:25.918Z,8.38
2023-05-15T03:45:55.717Z,8.38
2023-05-15T03:46:28.443Z,8.38
2023-05-15T03:46:59.798Z,8.38
2023-05-15T03:47:32.436Z,8.38
2023-05-15T03:48:03.550Z,8.38
2023-05-15T03:48:36.555Z,8.38
2023-05-15T03:49:07.522Z,8.38
2023-05-15T03:49:40.414Z,8.38
2023-05-15T03:50:11.911Z,8.38
2023-05-15T03:50:44.597Z,8.38
2023-05-15T03:51:15.559Z,8.38
2023-05-15T03:51:48.517Z,8.38
2023-05-15T03:52:19.594Z,8.38
2023-05-15T03:52:52.452Z,8.38
2023-05-15T03:53:23.541Z,8.38
2023-05-15T03:53:56.314Z,8.38
2023-05-15T03:54:27.717Z,8.38
2023-05-15T03:55:00.765Z,8.38
2023-05-15T03:55:31.594Z,8.38
2023-05-15T03:56:04.635Z,8.38
2023-05-15T03:56:35.566Z,8.38
2023-05-15T03:57:08.592Z,8.38
2023-05-15T03:57:39.611Z,8.38
2023-05-15T03:58:12.094Z,8.38
2023-05-15T03:58:43.554Z,8.38
2023-05-15T03:59:16.463Z,8.38
2023-05-15T03:59:47.666Z,8.38
2023-05-15T04:00:22.386Z,8.38
2023-05-15T04:00:51.700Z,8.38
2023-05-15T04:01:24.316Z,8.38
2023-05-15T04:02:04.117Z,8.38
2023-05-15T04:02:11.780Z,8.38
2023-05-15T04:02:43.560Z,8.38
2023-05-15T04:03:15.830Z,8.38
2023-05-15T04:03:48.268Z,8.38
2023-05-15T04:04:19.703Z,8.38
2023-05-15T04:04:52.338Z,8.38
2023-05-15T04:05:24.156Z,8.38
2023-05-15T04:05:56.630Z,8.38
2023-05-15T04:06:27.510Z,8.38
2023-05-15T04:07:00.454Z,8.38
2023-05-15T04:07:31.692Z,8.38
2023-05-15T04:08:04.516Z,8.38
2023-05-15T04:08:35.517Z,8.38
2023-05-15T04:09:08.256Z,8.38
2023-05-15T04:09:39.664Z,8.38
2023-05-15T04:10:12.646Z,8.38
2023-05-15T04:10:43.719Z,8.38
2023-05-15T04:11:16.388Z,8.38
2023-05-15T04:11:47.824Z,8.38
2023-05-15T04:12:20.231Z,8.38
2023-05-15T04:12:51.670Z,8.38
2023-05-15T04:13:24.380Z,8.38
2023-05-15T04:13:55.496Z,8.38
2023-05-15T04:14:11.629Z,8.38
2023-05-15T04:14:43.787Z,8.50
2023-05-15T04:15:16.551Z,8.50
2023-05-15T04:15:49.333Z,8.50
2023-05-15T04:16:19.804Z,8.50
2023-05-15T04:16:52.359Z,8.50
2023-05-15T04:17:23.634Z,8.50
2023-05-15T04:17:56.472Z,8.50
2023-05-15T04:18:27.603Z,8.50
2023-05-15T04:19:00.439Z,8.50
2023-05-15T04:19:31.699Z,8.50
2023-05-15T04:20:04.749Z,8.50
2023-05-15T04:20:35.522Z,8.50
2023-05-15T04:21:08.311Z,8.50
2023-05-15T04:21:39.637Z,8.50
2023-05-15T04:22:12.386Z,8.50
2023-05-15T04:22:43.691Z,8.50
2023-05-15T04:23:17.435Z,8.50
2023-05-15T04:23:47.710Z,8.50
2023-05-15T04:24:20.248Z,8.50
2023-05-15T04:24:51.666Z,8.50
2023-05-15T04:25:25.753Z,8.61
2023-05-15T04:25:55.557Z,8.61
2023-05-15T04:26:28.450Z,8.61
2023-05-15T04:26:59.726Z,8.61
2023-05-15T04:27:36.305Z,8.61
2023-05-15T04:28:03.645Z,8.61
2023-05-15T04:28:35.589Z,8.61
2023-05-15T04:29:07.732Z,8.61
2023-05-15T04:29:39.528Z,8.61
2023-05-15T04:30:13.716Z,8.61
2023-05-15T04:30:43.754Z,8.61
2023-05-15T04:31:16.507Z,8.61
2023-05-15T04:31:47.697Z,8.61
2023-05-15T04:32:20.295Z,8.61
2023-05-15T04:32:51.831Z,8.61
2023-05-15T04:33:24.463Z,8.61
2023-05-15T04:33:55.722Z,8.61
2023-05-15T04:34:28.365Z,8.61
2023-05-15T04:34:59.504Z,8.61
2023-05-15T04:35:32.722Z,8.61
2023-05-15T04:36:03.877Z,8.61
2023-05-15T04:36:36.542Z,8.61
2023-05-15T04:37:07.485Z,8.61
2023-05-15T04:37:48.720Z,8.61
2023-05-15T04:38:11.677Z,8.61
2023-05-15T04:38:43.595Z,8.61
2023-05-15T04:39:16.442Z,8.61
2023-05-15T04:39:47.681Z,8.61
2023-05-15T04:40:20.503Z,8.72
2023-05-15T04:40:51.684Z,8.72
2023-05-15T04:41:24.390Z,8.72
2023-05-15T04:41:55.745Z,8.72
2023-05-15T04:42:28.424Z,8.72
2023-05-15T04:42:59.610Z,8.72
2023-05-15T04:43:32.489Z,8.72
2023-05-15T04:44:03.562Z,8.72
2023-05-15T04:44:38.715Z,8.72
2023-05-15T04:45:08.804Z,8.72
2023-05-15T04:45:40.732Z,8.77
2023-05-15T04:46:11.683Z,8.77
2023-05-15T04:46:44.457Z,8.77
2023-05-15T04:47:15.919Z,8.77
2023-05-15T04:47:50.363Z,8.77
2023-05-15T04:48:19.661Z,8.77
2023-05-15T04:48:52.666Z,8.77
2023-05-15T04:49:23.831Z,8.77
2023-05-15T04:49:57.903Z,8.77
2023-05-15T04:50:28.226Z,8.77
2023-05-15T04:51:01.437Z,8.77
2023-05-15T04:51:31.622Z,8.77
2023-05-15T04:52:04.707Z,8.88
2023-05-15T04:52:35.836Z,8.88
2023-05-15T04:53:08.210Z,8.88
2023-05-15T04:53:39.634Z,8.88
2023-05-15T04:54:12.546Z,8.88
2023-05-15T04:54:43.779Z,8.88
2023-05-15T04:55:16.821Z,9.00
2023-05-15T04:55:47.715Z,9.00
2023-05-15T04:56:20.473Z,9.00
2023-05-15T04:56:51.566Z,9.00
2023-05-15T04:57:25.390Z,9.00
2023-05-15T04:57:55.669Z,9.00
2023-05-15T04:58:28.663Z,9.11
2023-05-15T04:58:59.536Z,9.11
2023-05-15T04:59:32.517Z,9.11
2023-05-15T05:00:05.355Z,9.11
2023-05-15T05:00:36.743Z,9.22
2023-05-15T05:01:07.586Z,9.22
2023-05-15T05:01:43.065Z,9.27
2023-05-15T05:02:11.697Z,9.27
2023-05-15T05:02:45.724Z,9.27
2023-05-15T05:03:15.788Z,9.27
2023-05-15T05:03:49.380Z,9.38
2023-05-15T05:04:19.695Z,9.38
2023-05-15T05:04:52.480Z,9.50
2023-05-15T05:05:24.100Z,9.50
2023-05-15T05:05:56.475Z,9.61
2023-05-15T05:06:29.808Z,9.61
2023-05-15T05:07:00.494Z,9.61
2023-05-15T05:07:31.787Z,9.61
2023-05-15T05:08:04.670Z,9.77
2023-05-15T05:08:35.656Z,9.77
2023-05-15T05:09:08.530Z,9.77
2023-05-15T05:09:39.858Z,9.77
2023-05-15T05:10:12.872Z,9.77
2023-05-15T05:10:43.929Z,9.77
2023-05-15T05:11:16.766Z,9.88
2023-05-15T05:11:47.639Z,9.88
2023-05-15T05:12:20.613Z,10.00
2023-05-15T05:12:51.715Z,10.00
2023-05-15T05:13:24.592Z,10.00
2023-05-15T05:13:55.563Z,10.00
2023-05-15T05:14:11.682Z,10.00
2023-05-15T05:14:43.624Z,10.00
2023-05-15T05:15:16.599Z,10.00
2023-05-15T05:15:47.818Z,10.11
2023-05-15T05:16:19.650Z,10.11
2023-05-15T05:16:52.301Z,10.11
2023-05-15T05:17:23.849Z,10.11
2023-05-15T05:17:56.698Z,10.11
2023-05-15T05:18:27.625Z,10.11
2023-05-15T05:19:00.485Z,10.22
2023-05-15T05:19:31.743Z,10.22
2023-05-15T05:20:04.634Z,10.27
2023-05-15T05:20:35.639Z,10.27
2023-05-15T05:21:08.566Z,10.27
2023-05-15T05:21:39.793Z,10.27
2023-05-15T05:22:12.468Z,10.38
2023-05-15T05:22:43.661Z,10.38
2023-05-15T05:23:16.647Z,10.38
2023-05-15T05:23:47.591Z,10.38
2023-05-15T05:24:20.377Z,10.50
2023-05-15T05:24:51.741Z,10.50
2023-05-15T05:25:25.057Z,10.50
2023-05-15T05:25:55.632Z,10.50
2023-05-15T05:26:28.434Z,10.61
2023-05-15T05:26:59.650Z,10.61
2023-05-15T05:27:32.378Z,10.61
2023-05-15T05:28:03.597Z,10.61
2023-05-15T05:28:36.539Z,10.72
2023-05-15T05:29:07.817Z,10.72
2023-05-15T05:29:40.418Z,10.72
2023-05-15T05:30:12.603Z,10.72
2023-05-15T05:30:44.541Z,10.77
2023-05-15T05:31:15.618Z,10.77
2023-05-15T05:31:48.498Z,10.88
2023-05-15T05:32:19.715Z,10.88
2023-05-15T05:32:52.410Z,11.00
2023-05-15T05:33:23.537Z,11.00
2023-05-15T05:33:56.309Z,11.00
2023-05-15T05:34:27.765Z,11.00
2023-05-15T05:35:00.884Z,11.11
2023-05-15T05:35:31.673Z,11.11
2023-05-15T05:36:04.720Z,11.11
2023-05-15T05:36:35.517Z,11.11
2023-05-15T05:37:08.600Z,11.22
2023-05-15T05:37:41.254Z,11.22
2023-05-15T05:38:12.453Z,11.22
2023-05-15T05:38:43.579Z,11.22
2023-05-15T05:39:16.318Z,11.27
2023-05-15T05:39:47.687Z,11.27
2023-05-15T05:40:21.850Z,11.27
2023-05-15T05:40:52.078Z,11.27
2023-05-15T05:41:24.861Z,11.50
2023-05-15T05:41:56.090Z,11.50
2023-05-15T05:42:28.801Z,11.61
2023-05-15T05:43:00.028Z,11.61
2023-05-15T05:43:32.871Z,11.77
2023-05-15T05:44:03.925Z,11.77
2023-05-15T05:44:36.957Z,11.88
2023-05-15T05:45:09.072Z,11.88
2023-05-15T05:45:40.992Z,12.00
2023-05-15T05:46:11.947Z,12.00
2023-05-15T05:46:44.981Z,12.22
2023-05-15T05:47:16.051Z,12.22
2023-05-15T05:47:52.181Z,12.27
2023-05-15T05:48:19.942Z,12.27
2023-05-15T05:48:52.911Z,12.50
2023-05-15T05:49:23.876Z,12.50
2023-05-15T05:49:56.785Z,12.61
2023-05-15T05:50:28.208Z,12.61
2023-05-15T05:51:00.874Z,12.72
2023-05-15T05:51:32.056Z,12.72
2023-05-15T05:52:05.025Z,12.77
2023-05-15T05:52:35.833Z,12.77
2023-05-15T05:53:08.649Z,12.88
2023-05-15T05:53:40.154Z,12.88
2023-05-15T05:54:12.674Z,13.00
2023-05-15T05:54:43.974Z,13.00
2023-05-15T05:55:17.170Z,13.11
2023-05-15T05:55:47.842Z,13.11
2023-05-15T05:56:20.880Z,13.22
2023-05-15T05:56:52.103Z,13.22
2023-05-15T05:57:24.843Z,13.27
2023-05-15T05:57:55.959Z,13.27
2023-05-15T05:58:28.842Z,13.38
2023-05-15T05:59:00.022Z,13.38
2023-05-15T05:59:32.801Z,13.38
2023-05-15T06:00:05.597Z,13.38
2023-05-15T06:00:37.030Z,13.50
2023-05-15T06:01:07.909Z,13.50
2023-05-15T06:01:40.877Z,13.61
2023-05-15T06:02:12.005Z,13.61
2023-05-15T06:02:45.064Z,13.72
2023-05-15T06:03:16.138Z,13.72
2023-05-15T06:03:48.877Z,13.72
2023-05-15T06:04:20.281Z,13.72
2023-05-15T06:04:52.790Z,13.72
2023-05-15T06:05:24.676Z,13.72
2023-05-15T06:05:56.973Z,13.72
2023-05-15T06:06:28.057Z,13.72
2023-05-15T06:07:00.950Z,13.77
2023-05-15T06:07:32.109Z,13.77
2023-05-15T06:08:04.951Z,13.88
2023-05-15T06:08:36.024Z,13.88
2023-05-15T06:09:08.903Z,14.00
2023-05-15T06:09:40.250Z,14.00
2023-05-15T06:10:13.159Z,14.00
2023-05-15T06:10:44.016Z,14.00
2023-05-15T06:11:17.120Z,14.11
2023-05-15T06:11:47.932Z,14.11
2023-05-15T06:12:22.963Z,14.22
2023-05-15T06:12:52.143Z,14.22
2023-05-15T06:13:24.882Z,14.22
2023-05-15T06:13:56.037Z,14.22
2023-05-15T06:14:28.786Z,14.27
2023-05-15T06:15:00.004Z,14.27
2023-05-15T06:15:33.943Z,14.38
2023-05-15T06:16:04.041Z,14.38
2023-05-15T06:16:39.180Z,14.38
2023-05-15T06:17:08.318Z,14.38
2023-05-15T06:17:40.939Z,14.50
2023-05-15T06:18:12.244Z,14.50
2023-05-15T06:18:44.598Z,14.61
2023-05-15T06:19:16.113Z,14.61
2023-05-15T06:19:48.828Z,14.72
2023-05-15T06:20:20.414Z,14.72
2023-05-15T06:20:52.730Z,14.77
2023-05-15T06:21:24.085Z,14.77
2023-05-15T06:21:57.118Z,14.88
2023-05-15T06:22:27.984Z,14.88
2023-05-15T06:23:01.762Z,15.00
2023-05-15T06:23:32.110Z,15.00
2023-05-15T06:24:04.700Z,15.00
2023-05-15T06:24:35.877Z,15.00
2023-05-15T06:25:09.065Z,15.11
2023-05-15T06:25:40.122Z,15.11
2023-05-15T06:26:12.805Z,15.11
2023-05-15T06:26:44.097Z,15.11
2023-05-15T06:27:16.914Z,15.22
2023-05-15T06:27:48.011Z,15.22
2023-05-15T06:28:20.918Z,15.22
2023-05-15T06:28:52.105Z,15.22
2023-05-15T06:29:24.811Z,15.27
2023-05-15T06:29:55.962Z,15.27
2023-05-15T06:30:29.804Z,15.38
2023-05-15T06:31:00.079Z,15.38
2023-05-15T06:31:36.136Z,15.50
2023-05-15T06:32:04.216Z,15.50
2023-05-15T06:32:38.352Z,15.50
2023-05-15T06:33:08.043Z,15.50
2023-05-15T06:33:40.939Z,15.61
2023-05-15T06:34:12.092Z,15.61
2023-05-15T06:34:45.845Z,15.72
2023-05-15T06:35:16.447Z,15.72
2023-05-15T06:35:49.128Z,15.72
2023-05-15T06:36:20.045Z,15.72
2023-05-15T06:36:52.856Z,15.72
2023-05-15T06:37:23.954Z,15.72
2023-05-15T06:37:58.412Z,15.77
2023-05-15T06:38:28.007Z,15.77
2023-05-15T06:39:00.885Z,15.77
2023-05-15T06:39:34.137Z,15.77
2023-05-15T06:40:07.260Z,15.88
2023-05-15T06:40:36.802Z,15.88
2023-05-15T06:41:09.661Z,15.88
2023-05-15T06:41:40.367Z,15.88
2023-05-15T06:42:12.785Z,16.00
2023-05-15T06:42:44.197Z,16.00
2023-05-15T06:43:16.915Z,16.00
2023-05-15T06:43:48.015Z,16.00
2023-05-15T06:44:20.975Z,16.11
2023-05-15T06:44:52.145Z,16.11
2023-05-15T06:45:26.022Z,16.11
2023-05-15T06:45:56.242Z,16.11
2023-05-15T06:46:29.805Z,16.22
2023-05-15T06:47:00.414Z,16.22
2023-05-15T06:47:33.022Z,16.27
2023-05-15T06:48:04.121Z,16.27
2023-05-15T06:48:36.818Z,16.38
2023-05-15T06:49:07.998Z,16.38
2023-05-15T06:49:40.923Z,16.38
2023-05-15T06:50:12.477Z,16.38
2023-05-15T06:50:44.922Z,16.50
2023-05-15T06:51:16.084Z,16.50
2023-05-15T06:51:48.964Z,16.61
2023-05-15T06:52:19.946Z,16.61
2023-05-15T06:52:52.795Z,16.61
2023-05-15T06:53:24.085Z,16.61
2023-05-15T06:53:57.052Z,16.61
2023-05-15T06:54:27.990Z,16.61
2023-05-15T06:55:01.195Z,16.61
2023-05-15T06:55:32.239Z,16.61
2023-05-15T06:56:04.979Z,16.72
2023-05-15T06:56:35.993Z,16.72
2023-05-15T06:57:08.859Z,16.77
2023-05-15T06:57:39.974Z,16.77
2023-05-15T06:58:12.866Z,16.77
2023-05-15T06:58:44.046Z,16.77